sensor_id;sensor_type;location;lat;lon;timestamp;P1;durP1;ratioP1;P2;durP2;ratioP2
4084;SDS011;2057;50.858;6.572;2023-06-10T00:00:39;14.53;;;10.83;;
4084;SDS011;2057;50.858;6.572;2023-06-10T00:03:08;22.00;;;11.27;;
4084;SDS011;2057;50.858;6.572;2023-06-10T00:05:34;11.00;;;9.83;;
4084;SDS011;2057;50.858;6.572;2023-06-10T00:08:01;15.40;;;11.30;;
4084;SDS011;2057;50.858;6.572;2023-06-10T00:10:32;15.30;;;10.33;;
4084;SDS011;2057;50.858;6.572;2023-06-10T00:13:04;13.30;;;10.10;;
4084;SDS011;2057;50.858;6.572;2023-06-10T00:15:33;19.23;;;10.97;;
4084;SDS011;2057;50.858;6.572;2023-06-10T00:18:00;10.50;;;9.47;;
4084;SDS011;2057;50.858;6.572;2023-06-10T00:20:26;11.37;;;10.17;;
4084;SDS011;2057;50.858;6.572;2023-06-10T00:22:51;15.43;;;10.63;;
4084;SDS011;2057;50.858;6.572;2023-06-10T00:25:17;16.00;;;10.17;;
4084;SDS011;2057;50.858;6.572;2023-06-10T00:27:43;11.60;;;10.40;;
4084;SDS011;2057;50.858;6.572;2023-06-10T00:30:08;10.63;;;9.27;;
4084;SDS011;2057;50.858;6.572;2023-06-10T00:32:34;23.67;;;10.13;;
4084;SDS011;2057;50.858;6.572;2023-06-10T00:35:01;26.80;;;10.20;;
4084;SDS011;2057;50.858;6.572;2023-06-10T00:37:27;11.63;;;9.47;;
4084;SDS011;2057;50.858;6.572;2023-06-10T00:39:53;16.03;;;9.87;;
4084;SDS011;2057;50.858;6.572;2023-06-10T00:42:19;9.73;;;8.73;;
4084;SDS011;2057;50.858;6.572;2023-06-10T00:44:44;11.87;;;9.33;;
4084;SDS011;2057;50.858;6.572;2023-06-10T00:47:10;12.67;;;10.10;;
4084;SDS011;2057;50.858;6.572;2023-06-10T00:49:35;19.37;;;10.67;;
4084;SDS011;2057;50.858;6.572;2023-06-10T00:52:01;12.27;;;9.57;;
4084;SDS011;2057;50.858;6.572;2023-06-10T00:54:29;11.23;;;10.23;;
4084;SDS011;2057;50.858;6.572;2023-06-10T00:56:55;22.90;;;9.80;;
4084;SDS011;2057;50.858;6.572;2023-06-10T00:59:21;11.57;;;10.23;;
4084;SDS011;2057;50.858;6.572;2023-06-10T01:01:46;10.80;;;9.57;;
4084;SDS011;2057;50.858;6.572;2023-06-10T01:04:12;15.00;;;8.93;;
4084;SDS011;2057;50.858;6.572;2023-06-10T01:12:26;10.50;;;9.43;;
4084;SDS011;2057;50.858;6.572;2023-06-10T01:14:59;16.80;;;9.53;;
4084;SDS011;2057;50.858;6.572;2023-06-10T01:17:25;10.13;;;9.07;;
4084;SDS011;2057;50.858;6.572;2023-06-10T01:19:55;13.00;;;9.57;;
4084;SDS011;2057;50.858;6.572;2023-06-10T01:22:25;13.47;;;8.80;;
4084;SDS011;2057;50.858;6.572;2023-06-10T01:24:57;16.50;;;9.43;;
4084;SDS011;2057;50.858;6.572;2023-06-10T01:27:23;14.37;;;9.50;;
4084;SDS011;2057;50.858;6.572;2023-06-10T01:29:59;19.23;;;10.13;;
4084;SDS011;2057;50.858;6.572;2023-06-10T01:32:34;13.13;;;10.03;;
4084;SDS011;2057;50.858;6.572;2023-06-10T01:35:05;10.60;;;9.50;;
4084;SDS011;2057;50.858;6.572;2023-06-10T01:37:33;13.53;;;9.07;;
4084;SDS011;2057;50.858;6.572;2023-06-10T01:39:59;19.43;;;10.00;;
4084;SDS011;2057;50.858;6.572;2023-06-10T01:42:26;16.40;;;10.47;;
4084;SDS011;2057;50.858;6.572;2023-06-10T01:44:53;13.73;;;10.20;;
4084;SDS011;2057;50.858;6.572;2023-06-10T01:47:21;12.30;;;10.30;;
4084;SDS011;2057;50.858;6.572;2023-06-10T01:49:46;11.10;;;10.00;;
4084;SDS011;2057;50.858;6.572;2023-06-10T01:52:12;10.43;;;8.93;;
4084;SDS011;2057;50.858;6.572;2023-06-10T01:54:37;15.40;;;11.20;;
4084;SDS011;2057;50.858;6.572;2023-06-10T01:57:03;20.67;;;11.40;;
4084;SDS011;2057;50.858;6.572;2023-06-10T01:59:29;15.50;;;10.93;;
4084;SDS011;2057;50.858;6.572;2023-06-10T02:01:54;15.83;;;9.90;;
4084;SDS011;2057;50.858;6.572;2023-06-10T02:04:19;10.83;;;9.70;;
4084;SDS011;2057;50.858;6.572;2023-06-10T02:06:45;16.73;;;10.07;;
4084;SDS011;2057;50.858;6.572;2023-06-10T02:09:10;12.47;;;10.40;;
4084;SDS011;2057;50.858;6.572;2023-06-10T02:11:36;13.70;;;10.87;;
4084;SDS011;2057;50.858;6.572;2023-06-10T02:14:01;14.13;;;11.13;;
4084;SDS011;2057;50.858;6.572;2023-06-10T02:16:27;15.03;;;11.87;;
4084;SDS011;2057;50.858;6.572;2023-06-10T02:18:52;13.40;;;12.00;;
4084;SDS011;2057;50.858;6.572;2023-06-10T02:21:18;12.77;;;11.43;;
4084;SDS011;2057;50.858;6.572;2023-06-10T02:23:43;17.40;;;12.40;;
4084;SDS011;2057;50.858;6.572;2023-06-10T02:26:08;17.60;;;12.00;;
4084;SDS011;2057;50.858;6.572;2023-06-10T02:28:34;16.03;;;11.87;;
4084;SDS011;2057;50.858;6.572;2023-06-10T02:30:59;16.43;;;11.10;;
4084;SDS011;2057;50.858;6.572;2023-06-10T02:33:25;15.83;;;10.67;;
4084;SDS011;2057;50.858;6.572;2023-06-10T02:35:52;13.80;;;10.27;;
4084;SDS011;2057;50.858;6.572;2023-06-10T02:38:17;18.57;;;10.40;;
4084;SDS011;2057;50.858;6.572;2023-06-10T02:40:43;12.33;;;11.10;;
4084;SDS011;2057;50.858;6.572;2023-06-10T02:43:08;18.77;;;12.10;;
4084;SDS011;2057;50.858;6.572;2023-06-10T02:45:34;14.00;;;10.27;;
4084;SDS011;2057;50.858;6.572;2023-06-10T02:47:59;12.93;;;11.03;;
4084;SDS011;2057;50.858;6.572;2023-06-10T02:50:24;17.37;;;9.57;;
4084;SDS011;2057;50.858;6.572;2023-06-10T02:52:50;14.13;;;10.00;;
4084;SDS011;2057;50.858;6.572;2023-06-10T02:55:15;21.27;;;10.43;;
4084;SDS011;2057;50.858;6.572;2023-06-10T02:57:41;12.37;;;11.07;;
4084;SDS011;2057;50.858;6.572;2023-06-10T03:00:06;13.80;;;10.07;;
4084;SDS011;2057;50.858;6.572;2023-06-10T03:02:36;13.37;;;10.83;;
4084;SDS011;2057;50.858;6.572;2023-06-10T03:05:04;15.83;;;11.23;;
4084;SDS011;2057;50.858;6.572;2023-06-10T03:07:30;12.80;;;10.90;;
4084;SDS011;2057;50.858;6.572;2023-06-10T03:09:55;23.87;;;10.40;;
4084;SDS011;2057;50.858;6.572;2023-06-10T03:12:21;13.33;;;11.00;;
4084;SDS011;2057;50.858;6.572;2023-06-10T03:14:46;14.67;;;11.13;;
4084;SDS011;2057;50.858;6.572;2023-06-10T03:17:12;16.93;;;10.17;;
4084;SDS011;2057;50.858;6.572;2023-06-10T03:19:37;17.07;;;12.13;;
4084;SDS011;2057;50.858;6.572;2023-06-10T03:22:07;15.90;;;10.70;;
4084;SDS011;2057;50.858;6.572;2023-06-10T03:24:34;14.10;;;10.17;;
4084;SDS011;2057;50.858;6.572;2023-06-10T03:27:01;12.20;;;10.63;;
4084;SDS011;2057;50.858;6.572;2023-06-10T03:29:27;16.90;;;11.50;;
4084;SDS011;2057;50.858;6.572;2023-06-10T03:31:52;13.50;;;11.50;;
4084;SDS011;2057;50.858;6.572;2023-06-10T03:34:17;15.13;;;10.83;;
4084;SDS011;2057;50.858;6.572;2023-06-10T03:36:43;15.80;;;11.13;;
4084;SDS011;2057;50.858;6.572;2023-06-10T03:39:08;12.10;;;10.90;;
4084;SDS011;2057;50.858;6.572;2023-06-10T03:41:34;14.60;;;12.37;;
4084;SDS011;2057;50.858;6.572;2023-06-10T03:44:00;13.20;;;11.80;;
4084;SDS011;2057;50.858;6.572;2023-06-10T03:46:25;38.73;;;12.63;;
4084;SDS011;2057;50.858;6.572;2023-06-10T03:48:51;29.90;;;12.13;;
4084;SDS011;2057;50.858;6.572;2023-06-10T03:51:16;14.27;;;10.90;;
4084;SDS011;2057;50.858;6.572;2023-06-10T03:53:42;32.17;;;11.17;;
4084;SDS011;2057;50.858;6.572;2023-06-10T03:56:07;16.83;;;11.50;;
4084;SDS011;2057;50.858;6.572;2023-06-10T03:58:32;11.63;;;10.43;;
4084;SDS011;2057;50.858;6.572;2023-06-10T04:00:58;16.70;;;12.20;;
4084;SDS011;2057;50.858;6.572;2023-06-10T04:03:23;14.47;;;11.60;;
4084;SDS011;2057;50.858;6.572;2023-06-10T04:05:49;13.27;;;10.87;;
4084;SDS011;2057;50.858;6.572;2023-06-10T04:08:15;22.70;;;10.90;;
4084;SDS011;2057;50.858;6.572;2023-06-10T04:10:40;12.93;;;11.27;;
4084;SDS011;2057;50.858;6.572;2023-06-10T04:13:06;14.93;;;11.10;;
4084;SDS011;2057;50.858;6.572;2023-06-10T04:15:31;21.93;;;11.47;;
4084;SDS011;2057;50.858;6.572;2023-06-10T04:17:59;17.50;;;10.93;;
4084;SDS011;2057;50.858;6.572;2023-06-10T04:20:26;41.57;;;12.07;;
4084;SDS011;2057;50.858;6.572;2023-06-10T04:22:51;23.17;;;12.00;;
4084;SDS011;2057;50.858;6.572;2023-06-10T04:25:17;19.30;;;11.83;;
4084;SDS011;2057;50.858;6.572;2023-06-10T04:27:43;16.60;;;12.33;;
4084;SDS011;2057;50.858;6.572;2023-06-10T04:30:08;22.63;;;12.10;;
4084;SDS011;2057;50.858;6.572;2023-06-10T04:32:34;42.63;;;11.00;;
4084;SDS011;2057;50.858;6.572;2023-06-10T04:35:00;21.37;;;11.40;;
4084;SDS011;2057;50.858;6.572;2023-06-10T04:37:25;11.60;;;10.40;;
4084;SDS011;2057;50.858;6.572;2023-06-10T04:39:51;17.97;;;10.30;;
4084;SDS011;2057;50.858;6.572;2023-06-10T04:42:16;14.20;;;9.80;;
4084;SDS011;2057;50.858;6.572;2023-06-10T04:44:42;18.40;;;11.47;;
4084;SDS011;2057;50.858;6.572;2023-06-10T04:47:08;26.87;;;10.10;;
4084;SDS011;2057;50.858;6.572;2023-06-10T04:49:34;20.93;;;11.33;;
4084;SDS011;2057;50.858;6.572;2023-06-10T04:52:00;37.37;;;12.13;;
4084;SDS011;2057;50.858;6.572;2023-06-10T04:54:25;11.63;;;10.43;;
4084;SDS011;2057;50.858;6.572;2023-06-10T04:56:51;17.73;;;11.13;;
4084;SDS011;2057;50.858;6.572;2023-06-10T04:59:16;17.23;;;10.97;;
4084;SDS011;2057;50.858;6.572;2023-06-10T05:01:42;15.33;;;11.07;;
4084;SDS011;2057;50.858;6.572;2023-06-10T05:04:08;45.40;;;11.90;;
4084;SDS011;2057;50.858;6.572;2023-06-10T05:06:33;27.73;;;11.77;;
4084;SDS011;2057;50.858;6.572;2023-06-10T05:08:59;21.80;;;11.47;;
4084;SDS011;2057;50.858;6.572;2023-06-10T05:11:24;13.27;;;10.30;;
4084;SDS011;2057;50.858;6.572;2023-06-10T05:13:50;16.77;;;11.30;;
4084;SDS011;2057;50.858;6.572;2023-06-10T05:16:15;23.80;;;11.20;;
4084;SDS011;2057;50.858;6.572;2023-06-10T05:18:40;14.23;;;10.87;;
4084;SDS011;2057;50.858;6.572;2023-06-10T05:21:07;21.30;;;11.60;;
4084;SDS011;2057;50.858;6.572;2023-06-10T05:23:33;23.23;;;12.20;;
4084;SDS011;2057;50.858;6.572;2023-06-10T05:25:58;12.07;;;10.20;;
4084;SDS011;2057;50.858;6.572;2023-06-10T05:28:24;17.40;;;12.17;;
4084;SDS011;2057;50.858;6.572;2023-06-10T05:30:52;23.37;;;11.17;;
4084;SDS011;2057;50.858;6.572;2023-06-10T05:33:17;24.13;;;12.47;;
4084;SDS011;2057;50.858;6.572;2023-06-10T05:35:42;24.03;;;12.57;;
4084;SDS011;2057;50.858;6.572;2023-06-10T05:38:08;13.77;;;10.83;;
4084;SDS011;2057;50.858;6.572;2023-06-10T05:40:33;24.90;;;11.60;;
4084;SDS011;2057;50.858;6.572;2023-06-10T05:42:58;12.37;;;10.50;;
4084;SDS011;2057;50.858;6.572;2023-06-10T05:45:24;25.10;;;10.83;;
4084;SDS011;2057;50.858;6.572;2023-06-10T05:47:50;20.67;;;9.93;;
4084;SDS011;2057;50.858;6.572;2023-06-10T05:50:16;31.13;;;11.13;;
4084;SDS011;2057;50.858;6.572;2023-06-10T05:52:42;13.97;;;9.90;;
4084;SDS011;2057;50.858;6.572;2023-06-10T05:55:07;12.03;;;10.20;;
4084;SDS011;2057;50.858;6.572;2023-06-10T05:57:33;16.40;;;10.80;;
4084;SDS011;2057;50.858;6.572;2023-06-10T05:59:59;28.33;;;11.57;;
4084;SDS011;2057;50.858;6.572;2023-06-10T06:02:24;10.97;;;9.57;;
4084;SDS011;2057;50.858;6.572;2023-06-10T06:04:49;14.03;;;10.63;;
4084;SDS011;2057;50.858;6.572;2023-06-10T06:07:15;13.40;;;9.70;;
4084;SDS011;2057;50.858;6.572;2023-06-10T06:09:40;17.10;;;9.70;;
4084;SDS011;2057;50.858;6.572;2023-06-10T06:12:06;19.63;;;10.57;;
4084;SDS011;2057;50.858;6.572;2023-06-10T06:14:36;13.17;;;9.83;;
4084;SDS011;2057;50.858;6.572;2023-06-10T06:17:02;13.63;;;10.10;;
4084;SDS011;2057;50.858;6.572;2023-06-10T06:19:29;14.03;;;9.53;;
4084;SDS011;2057;50.858;6.572;2023-06-10T06:21:54;19.77;;;10.33;;
4084;SDS011;2057;50.858;6.572;2023-06-10T06:24:20;13.13;;;9.73;;
4084;SDS011;2057;50.858;6.572;2023-06-10T06:26:45;17.07;;;10.50;;
4084;SDS011;2057;50.858;6.572;2023-06-10T06:29:11;27.70;;;12.30;;
4084;SDS011;2057;50.858;6.572;2023-06-10T06:31:36;17.13;;;11.10;;
4084;SDS011;2057;50.858;6.572;2023-06-10T06:34:01;12.67;;;10.50;;
4084;SDS011;2057;50.858;6.572;2023-06-10T06:36:27;13.00;;;11.37;;
4084;SDS011;2057;50.858;6.572;2023-06-10T06:38:52;18.23;;;10.97;;
4084;SDS011;2057;50.858;6.572;2023-06-10T06:41:17;29.97;;;10.77;;
4084;SDS011;2057;50.858;6.572;2023-06-10T06:43:43;17.10;;;11.43;;
4084;SDS011;2057;50.858;6.572;2023-06-10T06:46:08;20.50;;;10.40;;
4084;SDS011;2057;50.858;6.572;2023-06-10T06:48:34;13.87;;;10.83;;
4084;SDS011;2057;50.858;6.572;2023-06-10T06:51:00;21.80;;;10.70;;
4084;SDS011;2057;50.858;6.572;2023-06-10T06:53:25;14.70;;;11.83;;
4084;SDS011;2057;50.858;6.572;2023-06-10T06:55:50;13.90;;;10.20;;
4084;SDS011;2057;50.858;6.572;2023-06-10T06:58:16;20.53;;;11.10;;
4084;SDS011;2057;50.858;6.572;2023-06-10T07:00:41;12.07;;;10.97;;
4084;SDS011;2057;50.858;6.572;2023-06-10T07:03:07;22.17;;;11.17;;
4084;SDS011;2057;50.858;6.572;2023-06-10T07:05:32;22.43;;;9.93;;
4084;SDS011;2057;50.858;6.572;2023-06-10T07:07:57;14.03;;;10.93;;
4084;SDS011;2057;50.858;6.572;2023-06-10T07:10:23;12.70;;;10.27;;
4084;SDS011;2057;50.858;6.572;2023-06-10T07:12:50;14.33;;;11.67;;
4084;SDS011;2057;50.858;6.572;2023-06-10T07:15:15;14.93;;;12.30;;
4084;SDS011;2057;50.858;6.572;2023-06-10T07:17:41;13.87;;;11.53;;
4084;SDS011;2057;50.858;6.572;2023-06-10T07:20:07;13.93;;;10.00;;
4084;SDS011;2057;50.858;6.572;2023-06-10T07:22:32;16.57;;;11.27;;
4084;SDS011;2057;50.858;6.572;2023-06-10T07:24:57;20.63;;;11.90;;
4084;SDS011;2057;50.858;6.572;2023-06-10T07:27:23;13.90;;;11.07;;
4084;SDS011;2057;50.858;6.572;2023-06-10T07:29:48;13.80;;;10.60;;
4084;SDS011;2057;50.858;6.572;2023-06-10T07:32:14;15.07;;;11.27;;
4084;SDS011;2057;50.858;6.572;2023-06-10T07:34:39;14.10;;;10.23;;
4084;SDS011;2057;50.858;6.572;2023-06-10T07:37:05;16.93;;;13.10;;
4084;SDS011;2057;50.858;6.572;2023-06-10T07:39:30;16.53;;;10.90;;
4084;SDS011;2057;50.858;6.572;2023-06-10T07:41:55;12.90;;;11.60;;
4084;SDS011;2057;50.858;6.572;2023-06-10T07:44:22;15.47;;;11.10;;
4084;SDS011;2057;50.858;6.572;2023-06-10T07:46:48;13.20;;;10.53;;
4084;SDS011;2057;50.858;6.572;2023-06-10T07:49:13;12.83;;;9.60;;
4084;SDS011;2057;50.858;6.572;2023-06-10T07:51:39;13.23;;;9.10;;
4084;SDS011;2057;50.858;6.572;2023-06-10T07:54:04;11.90;;;8.07;;
4084;SDS011;2057;50.858;6.572;2023-06-10T07:56:30;17.23;;;10.37;;
4084;SDS011;2057;50.858;6.572;2023-06-10T07:58:55;13.23;;;10.30;;
4084;SDS011;2057;50.858;6.572;2023-06-10T08:01:22;12.50;;;9.20;;
4084;SDS011;2057;50.858;6.572;2023-06-10T08:03:47;12.33;;;9.00;;
4084;SDS011;2057;50.858;6.572;2023-06-10T08:06:13;18.33;;;9.43;;
4084;SDS011;2057;50.858;6.572;2023-06-10T08:08:38;14.73;;;9.07;;
4084;SDS011;2057;50.858;6.572;2023-06-10T08:11:07;9.70;;;8.70;;
4084;SDS011;2057;50.858;6.572;2023-06-10T08:13:33;14.33;;;9.47;;
4084;SDS011;2057;50.858;6.572;2023-06-10T08:15:58;23.30;;;10.47;;
4084;SDS011;2057;50.858;6.572;2023-06-10T08:18:24;11.23;;;8.33;;
4084;SDS011;2057;50.858;6.572;2023-06-10T08:20:49;11.67;;;9.03;;
4084;SDS011;2057;50.858;6.572;2023-06-10T08:23:15;14.80;;;8.90;;
4084;SDS011;2057;50.858;6.572;2023-06-10T08:25:40;11.27;;;7.93;;
4084;SDS011;2057;50.858;6.572;2023-06-10T08:28:05;14.23;;;8.20;;
4084;SDS011;2057;50.858;6.572;2023-06-10T08:30:31;12.10;;;7.70;;
4084;SDS011;2057;50.858;6.572;2023-06-10T08:32:59;9.70;;;7.70;;
4084;SDS011;2057;50.858;6.572;2023-06-10T08:35:24;10.30;;;7.13;;
4084;SDS011;2057;50.858;6.572;2023-06-10T08:37:50;16.23;;;8.30;;
4084;SDS011;2057;50.858;6.572;2023-06-10T08:40:15;7.67;;;6.87;;
4084;SDS011;2057;50.858;6.572;2023-06-10T08:42:59;13.60;;;7.80;;
4084;SDS011;2057;50.858;6.572;2023-06-10T08:45:28;9.90;;;7.07;;
4084;SDS011;2057;50.858;6.572;2023-06-10T08:47:56;13.97;;;9.00;;
4084;SDS011;2057;50.858;6.572;2023-06-10T08:50:24;7.67;;;6.97;;
4084;SDS011;2057;50.858;6.572;2023-06-10T08:52:53;12.30;;;8.40;;
4084;SDS011;2057;50.858;6.572;2023-06-10T08:55:23;16.03;;;8.37;;
4084;SDS011;2057;50.858;6.572;2023-06-10T08:57:54;10.70;;;9.47;;
4084;SDS011;2057;50.858;6.572;2023-06-10T09:00:19;10.33;;;8.23;;
4084;SDS011;2057;50.858;6.572;2023-06-10T09:02:46;14.97;;;9.37;;
4084;SDS011;2057;50.858;6.572;2023-06-10T09:05:12;13.33;;;7.47;;
4084;SDS011;2057;50.858;6.572;2023-06-10T09:07:38;10.63;;;9.37;;
4084;SDS011;2057;50.858;6.572;2023-06-10T09:10:04;9.53;;;8.07;;
4084;SDS011;2057;50.858;6.572;2023-06-10T09:12:32;10.07;;;7.10;;
4084;SDS011;2057;50.858;6.572;2023-06-10T09:15:01;11.57;;;7.30;;
4084;SDS011;2057;50.858;6.572;2023-06-10T09:17:27;12.20;;;8.63;;
4084;SDS011;2057;50.858;6.572;2023-06-10T09:19:53;9.70;;;8.30;;
4084;SDS011;2057;50.858;6.572;2023-06-10T09:22:21;11.20;;;7.40;;
4084;SDS011;2057;50.858;6.572;2023-06-10T09:24:47;8.07;;;7.13;;
4084;SDS011;2057;50.858;6.572;2023-06-10T09:27:12;11.80;;;7.43;;
4084;SDS011;2057;50.858;6.572;2023-06-10T09:29:51;10.10;;;8.57;;
4084;SDS011;2057;50.858;6.572;2023-06-10T09:32:18;13.00;;;8.47;;
4084;SDS011;2057;50.858;6.572;2023-06-10T09:34:45;19.63;;;9.50;;
4084;SDS011;2057;50.858;6.572;2023-06-10T09:37:10;19.47;;;8.50;;
4084;SDS011;2057;50.858;6.572;2023-06-10T09:39:38;14.47;;;8.33;;
4084;SDS011;2057;50.858;6.572;2023-06-10T09:42:25;13.60;;;8.27;;
4084;SDS011;2057;50.858;6.572;2023-06-10T09:44:50;13.40;;;8.57;;
4084;SDS011;2057;50.858;6.572;2023-06-10T09:47:22;13.83;;;7.90;;
4084;SDS011;2057;50.858;6.572;2023-06-10T09:49:48;10.00;;;8.43;;
4084;SDS011;2057;50.858;6.572;2023-06-10T09:52:23;12.63;;;8.77;;
4084;SDS011;2057;50.858;6.572;2023-06-10T09:54:53;18.17;;;9.33;;
4084;SDS011;2057;50.858;6.572;2023-06-10T09:57:24;8.40;;;7.60;;
4084;SDS011;2057;50.858;6.572;2023-06-10T09:59:52;12.97;;;8.10;;
4084;SDS011;2057;50.858;6.572;2023-06-10T10:02:18;10.27;;;7.97;;
4084;SDS011;2057;50.858;6.572;2023-06-10T10:04:44;9.43;;;7.47;;
4084;SDS011;2057;50.858;6.572;2023-06-10T10:07:12;10.40;;;8.60;;
4084;SDS011;2057;50.858;6.572;2023-06-10T10:09:39;12.90;;;8.80;;
4084;SDS011;2057;50.858;6.572;2023-06-10T10:12:12;14.50;;;8.80;;
4084;SDS011;2057;50.858;6.572;2023-06-10T10:14:39;13.33;;;8.43;;
4084;SDS011;2057;50.858;6.572;2023-06-10T10:17:13;14.43;;;8.10;;
4084;SDS011;2057;50.858;6.572;2023-06-10T10:19:43;12.80;;;8.90;;
4084;SDS011;2057;50.858;6.572;2023-06-10T10:22:15;12.53;;;7.20;;
4084;SDS011;2057;50.858;6.572;2023-06-10T10:24:51;12.60;;;8.80;;
4084;SDS011;2057;50.858;6.572;2023-06-10T10:27:43;12.17;;;8.13;;
4084;SDS011;2057;50.858;6.572;2023-06-10T10:30:09;8.73;;;7.30;;
4084;SDS011;2057;50.858;6.572;2023-06-10T10:32:58;10.97;;;7.83;;
4084;SDS011;2057;50.858;6.572;2023-06-10T10:35:26;18.20;;;8.60;;
4084;SDS011;2057;50.858;6.572;2023-06-10T10:37:53;8.73;;;7.70;;
4084;SDS011;2057;50.858;6.572;2023-06-10T10:40:22;10.30;;;8.10;;
4084;SDS011;2057;50.858;6.572;2023-06-10T10:42:49;10.80;;;8.00;;
4084;SDS011;2057;50.858;6.572;2023-06-10T10:45:16;12.23;;;8.03;;
4084;SDS011;2057;50.858;6.572;2023-06-10T10:47:42;11.37;;;7.60;;
4084;SDS011;2057;50.858;6.572;2023-06-10T10:50:16;12.73;;;8.30;;
4084;SDS011;2057;50.858;6.572;2023-06-10T10:53:02;18.37;;;8.53;;
4084;SDS011;2057;50.858;6.572;2023-06-10T10:55:31;15.27;;;7.80;;
4084;SDS011;2057;50.858;6.572;2023-06-10T11:00:33;11.60;;;7.80;;
4084;SDS011;2057;50.858;6.572;2023-06-10T11:05:47;10.77;;;7.97;;
4084;SDS011;2057;50.858;6.572;2023-06-10T11:10:57;11.53;;;7.60;;
4084;SDS011;2057;50.858;6.572;2023-06-10T11:13:22;12.00;;;6.93;;
4084;SDS011;2057;50.858;6.572;2023-06-10T11:15:49;7.87;;;6.50;;
4084;SDS011;2057;50.858;6.572;2023-06-10T11:20:51;16.47;;;8.60;;
4084;SDS011;2057;50.858;6.572;2023-06-10T11:25:50;16.93;;;7.90;;
4084;SDS011;2057;50.858;6.572;2023-06-10T11:28:19;10.50;;;7.80;;
4084;SDS011;2057;50.858;6.572;2023-06-10T11:30:45;13.33;;;8.03;;
4084;SDS011;2057;50.858;6.572;2023-06-10T11:33:19;9.40;;;7.03;;
4084;SDS011;2057;50.858;6.572;2023-06-10T11:35:45;12.23;;;7.77;;
4084;SDS011;2057;50.858;6.572;2023-06-10T11:38:12;11.67;;;7.03;;
4084;SDS011;2057;50.858;6.572;2023-06-10T11:40:38;12.73;;;7.47;;
4084;SDS011;2057;50.858;6.572;2023-06-10T11:43:04;10.33;;;7.07;;
4084;SDS011;2057;50.858;6.572;2023-06-10T11:45:29;15.00;;;7.50;;
4084;SDS011;2057;50.858;6.572;2023-06-10T11:47:58;7.60;;;6.83;;
4084;SDS011;2057;50.858;6.572;2023-06-10T11:50:42;9.37;;;6.70;;
4084;SDS011;2057;50.858;6.572;2023-06-10T11:53:08;13.03;;;7.07;;
4084;SDS011;2057;50.858;6.572;2023-06-10T11:58:15;8.60;;;7.70;;
4084;SDS011;2057;50.858;6.572;2023-06-10T12:00:48;12.30;;;7.07;;
4084;SDS011;2057;50.858;6.572;2023-06-10T12:03:23;8.00;;;6.90;;
4084;SDS011;2057;50.858;6.572;2023-06-10T12:06:00;12.60;;;7.00;;
4084;SDS011;2057;50.858;6.572;2023-06-10T12:08:27;9.67;;;7.23;;
4084;SDS011;2057;50.858;6.572;2023-06-10T12:10:53;9.20;;;6.43;;
4084;SDS011;2057;50.858;6.572;2023-06-10T12:13:20;7.43;;;6.73;;
4084;SDS011;2057;50.858;6.572;2023-06-10T12:15:46;9.30;;;6.90;;
4084;SDS011;2057;50.858;6.572;2023-06-10T12:18:18;9.37;;;6.87;;
4084;SDS011;2057;50.858;6.572;2023-06-10T12:20:44;15.03;;;7.73;;
4084;SDS011;2057;50.858;6.572;2023-06-10T12:23:10;9.90;;;6.27;;
4084;SDS011;2057;50.858;6.572;2023-06-10T12:25:36;12.10;;;6.80;;
4084;SDS011;2057;50.858;6.572;2023-06-10T12:28:03;6.50;;;5.87;;
4084;SDS011;2057;50.858;6.572;2023-06-10T12:30:29;9.83;;;5.70;;
4084;SDS011;2057;50.858;6.572;2023-06-10T12:32:54;12.33;;;6.43;;
4084;SDS011;2057;50.858;6.572;2023-06-10T12:35:24;9.33;;;6.77;;
4084;SDS011;2057;50.858;6.572;2023-06-10T12:40:36;8.57;;;6.80;;
4084;SDS011;2057;50.858;6.572;2023-06-10T12:43:03;6.37;;;5.77;;
4084;SDS011;2057;50.858;6.572;2023-06-10T12:45:33;7.07;;;6.10;;
4084;SDS011;2057;50.858;6.572;2023-06-10T12:48:09;7.60;;;5.57;;
4084;SDS011;2057;50.858;6.572;2023-06-10T12:50:37;6.53;;;5.97;;
4084;SDS011;2057;50.858;6.572;2023-06-10T12:53:07;7.17;;;5.47;;
4084;SDS011;2057;50.858;6.572;2023-06-10T12:55:34;8.07;;;6.20;;
4084;SDS011;2057;50.858;6.572;2023-06-10T12:58:00;11.37;;;5.57;;
4084;SDS011;2057;50.858;6.572;2023-06-10T13:00:26;7.00;;;6.20;;
4084;SDS011;2057;50.858;6.572;2023-06-10T13:02:55;6.07;;;5.37;;
4084;SDS011;2057;50.858;6.572;2023-06-10T13:05:20;7.40;;;6.17;;
4084;SDS011;2057;50.858;6.572;2023-06-10T13:07:46;5.90;;;5.40;;
4084;SDS011;2057;50.858;6.572;2023-06-10T13:10:12;19.80;;;6.10;;
4084;SDS011;2057;50.858;6.572;2023-06-10T13:12:39;10.10;;;5.93;;
4084;SDS011;2057;50.858;6.572;2023-06-10T13:15:04;8.90;;;6.33;;
4084;SDS011;2057;50.858;6.572;2023-06-10T13:17:30;6.87;;;6.20;;
4084;SDS011;2057;50.858;6.572;2023-06-10T13:19:56;6.77;;;6.07;;
4084;SDS011;2057;50.858;6.572;2023-06-10T13:22:21;13.20;;;7.10;;
4084;SDS011;2057;50.858;6.572;2023-06-10T13:24:48;11.70;;;6.37;;
4084;SDS011;2057;50.858;6.572;2023-06-10T13:27:14;18.70;;;6.90;;
4084;SDS011;2057;50.858;6.572;2023-06-10T13:29:39;11.33;;;6.10;;
4084;SDS011;2057;50.858;6.572;2023-06-10T13:32:05;13.63;;;5.13;;
4084;SDS011;2057;50.858;6.572;2023-06-10T13:34:31;7.07;;;5.57;;
4084;SDS011;2057;50.858;6.572;2023-06-10T13:36:56;12.40;;;5.87;;
4084;SDS011;2057;50.858;6.572;2023-06-10T13:39:22;14.57;;;5.90;;
4084;SDS011;2057;50.858;6.572;2023-06-10T13:41:47;6.13;;;5.53;;
4084;SDS011;2057;50.858;6.572;2023-06-10T13:44:13;10.83;;;6.13;;
4084;SDS011;2057;50.858;6.572;2023-06-10T13:46:38;7.30;;;5.63;;
4084;SDS011;2057;50.858;6.572;2023-06-10T13:49:06;6.83;;;5.40;;
4084;SDS011;2057;50.858;6.572;2023-06-10T13:51:31;10.67;;;6.33;;
4084;SDS011;2057;50.858;6.572;2023-06-10T13:53:56;7.90;;;5.57;;
4084;SDS011;2057;50.858;6.572;2023-06-10T13:56:22;7.20;;;5.43;;
4084;SDS011;2057;50.858;6.572;2023-06-10T13:58:48;6.57;;;5.40;;
4084;SDS011;2057;50.858;6.572;2023-06-10T14:01:13;6.53;;;5.53;;
4084;SDS011;2057;50.858;6.572;2023-06-10T14:03:38;5.93;;;5.43;;
4084;SDS011;2057;50.858;6.572;2023-06-10T14:06:06;9.97;;;5.80;;
4084;SDS011;2057;50.858;6.572;2023-06-10T14:08:32;6.03;;;5.53;;
4084;SDS011;2057;50.858;6.572;2023-06-10T14:10:57;15.30;;;5.83;;
4084;SDS011;2057;50.858;6.572;2023-06-10T14:13:23;7.77;;;5.10;;
4084;SDS011;2057;50.858;6.572;2023-06-10T14:15:48;10.57;;;5.40;;
4084;SDS011;2057;50.858;6.572;2023-06-10T14:18:14;8.33;;;4.83;;
4084;SDS011;2057;50.858;6.572;2023-06-10T14:20:40;9.87;;;5.27;;
4084;SDS011;2057;50.858;6.572;2023-06-10T14:23:05;9.50;;;4.97;;
4084;SDS011;2057;50.858;6.572;2023-06-10T14:25:30;12.33;;;5.83;;
4084;SDS011;2057;50.858;6.572;2023-06-10T14:27:56;8.20;;;5.77;;
4084;SDS011;2057;50.858;6.572;2023-06-10T14:30:22;5.73;;;4.00;;
4084;SDS011;2057;50.858;6.572;2023-06-10T14:32:48;9.73;;;4.70;;
4084;SDS011;2057;50.858;6.572;2023-06-10T14:35:13;5.90;;;4.57;;
4084;SDS011;2057;50.858;6.572;2023-06-10T14:37:38;6.17;;;4.97;;
4084;SDS011;2057;50.858;6.572;2023-06-10T14:40:04;5.90;;;4.50;;
4084;SDS011;2057;50.858;6.572;2023-06-10T14:42:30;8.67;;;4.93;;
4084;SDS011;2057;50.858;6.572;2023-06-10T14:44:57;6.17;;;4.87;;
4084;SDS011;2057;50.858;6.572;2023-06-10T14:47:22;9.47;;;5.10;;
4084;SDS011;2057;50.858;6.572;2023-06-10T14:49:48;6.03;;;4.80;;
4084;SDS011;2057;50.858;6.572;2023-06-10T14:52:13;4.77;;;4.33;;
4084;SDS011;2057;50.858;6.572;2023-06-10T14:54:38;11.53;;;5.47;;
4084;SDS011;2057;50.858;6.572;2023-06-10T14:57:04;5.07;;;3.90;;
4084;SDS011;2057;50.858;6.572;2023-06-10T14:59:30;7.60;;;4.90;;
4084;SDS011;2057;50.858;6.572;2023-06-10T15:01:56;5.47;;;3.80;;
4084;SDS011;2057;50.858;6.572;2023-06-10T15:04:22;12.57;;;4.57;;
4084;SDS011;2057;50.858;6.572;2023-06-10T15:06:47;5.80;;;4.60;;
4084;SDS011;2057;50.858;6.572;2023-06-10T15:09:14;5.53;;;4.50;;
4084;SDS011;2057;50.858;6.572;2023-06-10T15:11:40;8.63;;;4.50;;
4084;SDS011;2057;50.858;6.572;2023-06-10T15:14:06;10.50;;;4.37;;
4084;SDS011;2057;50.858;6.572;2023-06-10T15:16:31;11.23;;;4.40;;
4084;SDS011;2057;50.858;6.572;2023-06-10T15:18:56;7.20;;;4.40;;